sensor_id;sensor_type;location;lat;lon;timestamp;temperature;humidity
1644;DHT22;46825;51.99869940;8.49421771;2023-04-03T00:00:00;3.30;99.90
1644;DHT22;46825;51.99869940;8.49421771;2023-04-03T00:01:02;3.30;99.90
1644;DHT22;46825;51.99869940;8.49421771;2023-04-03T00:02:02;3.30;99.90
1644;DHT22;46825;51.99869940;8.49421771;2023-04-03T00:03:03;3.20;99.90
1644;DHT22;46825;51.99869940;8.49421771;2023-04-03T00:04:05;3.20;99.90
1644;DHT22;46825;51.99869940;8.49421771;2023-04-03T00:05:06;3.30;99.90
1644;DHT22;46825;51.99869940;8.49421771;2023-04-03T00:06:07;3.30;99.90
1644;DHT22;46825;51.99869940;8.49421771;2023-04-03T00:07:09;3.20;99.90
1644;DHT22;46825;51.99869940;8.49421771;2023-04-03T00:08:09;3.30;99.90
1644;DHT22;46825;51.99869940;8.49421771;2023-04-03T00:09:10;3.20;99.90
1644;DHT22;46825;51.99869940;8.49421771;2023-04-03T00:10:11;3.20;99.90
1644;DHT22;46825;51.99869940;8.49421771;2023-04-03T00:11:12;3.20;99.90
1644;DHT22;46825;51.99869940;8.49421771;2023-04-03T00:12:13;3.20;99.90
1644;DHT22;46825;51.99869940;8.49421771;2023-04-03T00:13:13;3.20;99.90
1644;DHT22;46825;51.99869940;8.49421771;2023-04-03T00:14:14;3.20;99.90
1644;DHT22;46825;51.99869940;8.49421771;2023-04-03T00:15:15;3.10;99.90
1644;DHT22;46825;51.99869940;8.49421771;2023-04-03T00:16:16;3.10;99.90
1644;DHT22;46825;51.99869940;8.49421771;2023-04-03T00:17:16;3.10;99.90
1644;DHT22;46825;51.99869940;8.49421771;2023-04-03T00:18:17;3.10;99.90
1644;DHT22;46825;51.99869940;8.49421771;2023-04-03T00:19:18;3.00;99.90
1644;DHT22;46825;51.99869940;8.49421771;2023-04-03T00:20:18;3.10;99.90
1644;DHT22;46825;51.99869940;8.49421771;2023-04-03T00:21:19;3.10;99.90
1644;DHT22;46825;51.99869940;8.49421771;2023-04-03T00:22:20;3.00;99.90
1644;DHT22;46825;51.99869940;8.49421771;2023-04-03T00:23:21;3.00;99.90
1644;DHT22;46825;51.99869940;8.49421771;2023-04-03T00:24:23;3.00;99.90
1644;DHT22;46825;51.99869940;8.49421771;2023-04-03T00:25:25;3.00;99.90
1644;DHT22;46825;51.99869940;8.49421771;2023-04-03T00:26:25;2.90;99.90
1644;DHT22;46825;51.99869940;8.49421771;2023-04-03T00:27:26;3.00;99.90
1644;DHT22;46825;51.99869940;8.49421771;2023-04-03T00:28:26;3.00;99.90
1644;DHT22;46825;51.99869940;8.49421771;2023-04-03T00:29:27;3.00;99.90
1644;DHT22;46825;51.99869940;8.49421771;2023-04-03T00:30:28;3.10;99.90
1644;DHT22;46825;51.99869940;8.49421771;2023-04-03T00:31:28;3.00;99.90
1644;DHT22;46825;51.99869940;8.49421771;2023-04-03T00:32:29;3.00;99.90
1644;DHT22;46825;51.99869940;8.49421771;2023-04-03T00:33:30;3.00;99.90
1644;DHT22;46825;51.99869940;8.49421771;2023-04-03T00:34:31;3.00;99.90
1644;DHT22;46825;51.99869940;8.49421771;2023-04-03T00:35:32;3.00;99.90
1644;DHT22;46825;51.99869940;8.49421771;2023-04-03T00:36:34;2.50;99.90
1644;DHT22;46825;51.99869940;8.49421771;2023-04-03T00:37:34;2.90;99.90
1644;DHT22;46825;51.99869940;8.49421771;2023-04-03T00:38:35;2.90;99.90
1644;DHT22;46825;51.99869940;8.49421771;2023-04-03T00:39:36;2.80;99.90
1644;DHT22;46825;51.99869940;8.49421771;2023-04-03T00:40:39;2.80;99.90
1644;DHT22;46825;51.99869940;8.49421771;2023-04-03T00:41:41;2.80;99.90
1644;DHT22;46825;51.99869940;8.49421771;2023-04-03T00:42:43;2.90;99.90
1644;DHT22;46825;51.99869940;8.49421771;2023-04-03T00:43:45;3.20;99.90
1644;DHT22;46825;51.99869940;8.49421771;2023-04-03T00:45:50;2.70;99.90
1644;DHT22;46825;51.99869940;8.49421771;2023-04-03T00:46:52;2.70;99.90
1644;DHT22;46825;51.99869940;8.49421771;2023-04-03T00:47:52;2.70;99.90
1644;DHT22;46825;51.99869940;8.49421771;2023-04-03T00:48:53;2.70;99.90
1644;DHT22;46825;51.99869940;8.49421771;2023-04-03T00:49:54;2.60;99.90
1644;DHT22;46825;51.99869940;8.49421771;2023-04-03T00:50:55;2.60;99.90
1644;DHT22;46825;51.99869940;8.49421771;2023-04-03T00:51:56;2.60;99.90
1644;DHT22;46825;51.99869940;8.49421771;2023-04-03T00:52:58;2.60;99.90
1644;DHT22;46825;51.99869940;8.49421771;2023-04-03T00:54:01;2.60;99.90
1644;DHT22;46825;51.99869940;8.49421771;2023-04-03T00:55:06;2.60;99.90
1644;DHT22;46825;51.99869940;8.49421771;2023-04-03T00:56:11;2.60;99.90
1644;DHT22;46825;51.99869940;8.49421771;2023-04-03T00:57:12;2.50;99.90
1644;DHT22;46825;51.99869940;8.49421771;2023-04-03T00:58:16;2.50;99.90
1644;DHT22;46825;51.99869940;8.49421771;2023-04-03T00:59:21;2.50;99.90
1644;DHT22;46825;51.99869940;8.49421771;2023-04-03T01:00:24;2.50;99.90
1644;DHT22;46825;51.99869940;8.49421771;2023-04-03T01:01:27;2.50;99.90
1644;DHT22;46825;51.99869940;8.49421771;2023-04-03T01:02:28;2.50;99.90
1644;DHT22;46825;51.99869940;8.49421771;2023-04-03T01:03:28;2.50;99.90
1644;DHT22;46825;51.99869940;8.49421771;2023-04-03T01:04:34;2.70;99.90
1644;DHT22;46825;51.99869940;8.49421771;2023-04-03T01:05:36;2.40;99.90
1644;DHT22;46825;51.99869940;8.49421771;2023-04-03T01:06:37;2.40;99.90
1644;DHT22;46825;51.99869940;8.49421771;2023-04-03T01:07:38;2.40;99.90
1644;DHT22;46825;51.99869940;8.49421771;2023-04-03T01:08:39;2.40;99.90
1644;DHT22;46825;51.99869940;8.49421771;2023-04-03T01:09:40;2.40;99.90
1644;DHT22;46825;51.99869940;8.49421771;2023-04-03T01:10:41;2.40;99.90
1644;DHT22;46825;51.99869940;8.49421771;2023-04-03T01:11:42;2.40;99.90
1644;DHT22;46825;51.99869940;8.49421771;2023-04-03T01:12:44;2.40;99.90
1644;DHT22;46825;51.99869940;8.49421771;2023-04-03T01:13:45;2.40;99.90
1644;DHT22;46825;51.99869940;8.49421771;2023-04-03T01:14:48;2.30;99.90
1644;DHT22;46825;51.99869940;8.49421771;2023-04-03T01:15:49;2.30;99.90
1644;DHT22;46825;51.99869940;8.49421771;2023-04-03T01:16:56;2.30;99.90
1644;DHT22;46825;51.99869940;8.49421771;2023-04-03T01:17:58;2.30;99.90
1644;DHT22;46825;51.99869940;8.49421771;2023-04-03T01:19:00;2.20;99.90
1644;DHT22;46825;51.99869940;8.49421771;2023-04-03T01:21:48;2.20;99.90
1644;DHT22;46825;51.99869940;8.49421771;2023-04-03T01:24:32;2.20;99.90
1644;DHT22;46825;51.99869940;8.49421771;2023-04-03T01:25:34;2.10;99.90
1644;DHT22;46825;51.99869940;8.49421771;2023-04-03T01:26:36;2.10;99.90
1644;DHT22;46825;51.99869940;8.49421771;2023-04-03T01:27:37;4.20;99.90
1644;DHT22;46825;51.99869940;8.49421771;2023-04-03T01:28:37;2.10;99.90
1644;DHT22;46825;51.99869940;8.49421771;2023-04-03T01:29:39;2.10;99.90
1644;DHT22;46825;51.99869940;8.49421771;2023-04-03T01:32:26;2.10;99.90
1644;DHT22;46825;51.99869940;8.49421771;2023-04-03T01:33:27;2.10;99.90
1644;DHT22;46825;51.99869940;8.49421771;2023-04-03T01:34:28;2.10;99.90
1644;DHT22;46825;51.99869940;8.49421771;2023-04-03T01:35:29;2.10;99.90
1644;DHT22;46825;51.99869940;8.49421771;2023-04-03T01:36:31;2.00;99.90
1644;DHT22;46825;51.99869940;8.49421771;2023-04-03T01:37:32;2.00;99.90
1644;DHT22;46825;51.99869940;8.49421771;2023-04-03T01:38:33;2.00;99.90
1644;DHT22;46825;51.99869940;8.49421771;2023-04-03T01:39:33;2.00;99.90
1644;DHT22;46825;51.99869940;8.49421771;2023-04-03T01:40:34;2.00;99.90
1644;DHT22;46825;51.99869940;8.49421771;2023-04-03T01:41:34;2.00;99.90
1644;DHT22;46825;51.99869940;8.49421771;2023-04-03T01:42:35;2.00;99.90
1644;DHT22;46825;51.99869940;8.49421771;2023-04-03T01:43:36;2.00;99.90
1644;DHT22;46825;51.99869940;8.49421771;2023-04-03T01:44:36;2.00;99.90
1644;DHT22;46825;51.99869940;8.49421771;2023-04-03T01:45:37;2.00;99.90
1644;DHT22;46825;51.99869940;8.49421771;2023-04-03T01:46:37;1.90;99.90
1644;DHT22;46825;51.99869940;8.49421771;2023-04-03T01:47:38;1.90;99.90
1644;DHT22;46825;51.99869940;8.49421771;2023-04-03T01:48:39;1.90;99.90
1644;DHT22;46825;51.99869940;8.49421771;2023-04-03T01:49:39;1.90;99.90
1644;DHT22;46825;51.99869940;8.49421771;2023-04-03T01:50:40;3.20;99.90
1644;DHT22;46825;51.99869940;8.49421771;2023-04-03T01:51:40;1.80;99.90
1644;DHT22;46825;51.99869940;8.49421771;2023-04-03T01:52:41;1.90;99.90
1644;DHT22;46825;51.99869940;8.49421771;2023-04-03T01:53:41;1.90;99.90
1644;DHT22;46825;51.99869940;8.49421771;2023-04-03T01:54:42;1.90;99.90
1644;DHT22;46825;51.99869940;8.49421771;2023-04-03T01:55:43;1.80;99.90
1644;DHT22;46825;51.99869940;8.49421771;2023-04-03T01:56:43;1.80;99.90
1644;DHT22;46825;51.99869940;8.49421771;2023-04-03T01:57:44;1.80;99.90
1644;DHT22;46825;51.99869940;8.49421771;2023-04-03T01:58:45;1.70;99.90
1644;DHT22;46825;51.99869940;8.49421771;2023-04-03T02:01:00;1.70;99.90
1644;DHT22;46825;51.99869940;8.49421771;2023-04-03T02:02:01;1.80;99.90
1644;DHT22;46825;51.99869940;8.49421771;2023-04-03T02:03:02;1.70;99.90
1644;DHT22;46825;51.99869940;8.49421771;2023-04-03T02:04:03;1.70;99.90
1644;DHT22;46825;51.99869940;8.49421771;2023-04-03T02:05:04;1.70;99.90
1644;DHT22;46825;51.99869940;8.49421771;2023-04-03T02:06:05;1.70;99.90
1644;DHT22;46825;51.99869940;8.49421771;2023-04-03T02:07:06;1.70;99.90
1644;DHT22;46825;51.99869940;8.49421771;2023-04-03T02:08:06;1.70;99.90
1644;DHT22;46825;51.99869940;8.49421771;2023-04-03T02:09:07;1.70;99.90
1644;DHT22;46825;51.99869940;8.49421771;2023-04-03T02:10:08;1.70;99.90
1644;DHT22;46825;51.99869940;8.49421771;2023-04-03T02:11:08;1.60;99.90
1644;DHT22;46825;51.99869940;8.49421771;2023-04-03T02:12:09;1.60;99.90
1644;DHT22;46825;51.99869940;8.49421771;2023-04-03T02:13:10;1.60;99.90
1644;DHT22;46825;51.99869940;8.49421771;2023-04-03T02:14:11;1.60;99.90
1644;DHT22;46825;51.99869940;8.49421771;2023-04-03T02:15:11;1.60;99.90
1644;DHT22;46825;51.99869940;8.49421771;2023-04-03T02:16:12;1.60;99.90
1644;DHT22;46825;51.99869940;8.49421771;2023-04-03T02:17:13;1.60;99.90
1644;DHT22;46825;51.99869940;8.49421771;2023-04-03T02:18:14;1.60;99.90
1644;DHT22;46825;51.99869940;8.49421771;2023-04-03T02:19:15;1.60;99.90
1644;DHT22;46825;51.99869940;8.49421771;2023-04-03T02:20:16;1.60;99.90
1644;DHT22;46825;51.99869940;8.49421771;2023-04-03T02:21:17;1.60;99.90
1644;DHT22;46825;51.99869940;8.49421771;2023-04-03T02:22:17;1.60;99.90
1644;DHT22;46825;51.99869940;8.49421771;2023-04-03T02:23:18;1.60;99.90
1644;DHT22;46825;51.99869940;8.49421771;2023-04-03T02:24:19;1.50;99.90
1644;DHT22;46825;51.99869940;8.49421771;2023-04-03T02:25:19;2.40;99.90
1644;DHT22;46825;51.99869940;8.49421771;2023-04-03T02:26:20;1.50;99.90
1644;DHT22;46825;51.99869940;8.49421771;2023-04-03T02:27:21;1.50;99.90
1644;DHT22;46825;51.99869940;8.49421771;2023-04-03T02:28:21;1.50;99.90
1644;DHT22;46825;51.99869940;8.49421771;2023-04-03T02:29:22;1.50;99.90
1644;DHT22;46825;51.99869940;8.49421771;2023-04-03T02:30:23;1.50;99.90
1644;DHT22;46825;51.99869940;8.49421771;2023-04-03T02:31:24;1.50;99.90
1644;DHT22;46825;51.99869940;8.49421771;2023-04-03T02:32:25;1.40;99.90
1644;DHT22;46825;51.99869940;8.49421771;2023-04-03T02:33:26;1.40;99.90
1644;DHT22;46825;51.99869940;8.49421771;2023-04-03T02:34:26;1.40;99.90
1644;DHT22;46825;51.99869940;8.49421771;2023-04-03T02:35:27;1.40;99.90
1644;DHT22;46825;51.99869940;8.49421771;2023-04-03T02:36:27;1.40;99.90
1644;DHT22;46825;51.99869940;8.49421771;2023-04-03T02:37:28;1.40;99.90
1644;DHT22;46825;51.99869940;8.49421771;2023-04-03T02:38:29;1.40;99.90
1644;DHT22;46825;51.99869940;8.49421771;2023-04-03T02:39:29;1.40;99.90
1644;DHT22;46825;51.99869940;8.49421771;2023-04-03T02:40:30;1.70;99.90
1644;DHT22;46825;51.99869940;8.49421771;2023-04-03T02:41:31;1.40;99.90
1644;DHT22;46825;51.99869940;8.49421771;2023-04-03T02:42:35;1.30;99.90
1644;DHT22;46825;51.99869940;8.49421771;2023-04-03T02:43:36;1.30;99.90
1644;DHT22;46825;51.99869940;8.49421771;2023-04-03T02:44:37;1.30;99.90
1644;DHT22;46825;51.99869940;8.49421771;2023-04-03T02:45:39;1.30;99.90
1644;DHT22;46825;51.99869940;8.49421771;2023-04-03T02:46:40;1.30;99.90
1644;DHT22;46825;51.99869940;8.49421771;2023-04-03T02:47:40;1.30;99.90
1644;DHT22;46825;51.99869940;8.49421771;2023-04-03T02:48:41;1.30;99.90
1644;DHT22;46825;51.99869940;8.49421771;2023-04-03T02:49:41;1.30;99.90
1644;DHT22;46825;51.99869940;8.49421771;2023-04-03T02:50:45;1.30;99.90
1644;DHT22;46825;51.99869940;8.49421771;2023-04-03T02:51:45;1.20;99.90
1644;DHT22;46825;51.99869940;8.49421771;2023-04-03T02:52:46;1.20;99.90
1644;DHT22;46825;51.99869940;8.49421771;2023-04-03T02:53:46;1.20;99.90
1644;DHT22;46825;51.99869940;8.49421771;2023-04-03T02:54:47;1.30;99.90
1644;DHT22;46825;51.99869940;8.49421771;2023-04-03T02:55:48;1.20;99.90
1644;DHT22;46825;51.99869940;8.49421771;2023-04-03T02:56:50;1.20;99.90
1644;DHT22;46825;51.99869940;8.49421771;2023-04-03T02:57:50;1.20;99.90
1644;DHT22;46825;51.99869940;8.49421771;2023-04-03T02:58:51;1.20;99.90
1644;DHT22;46825;51.99869940;8.49421771;2023-04-03T02:59:52;1.30;99.90
1644;DHT22;46825;51.99869940;8.49421771;2023-04-03T03:00:53;1.20;99.90
1644;DHT22;46825;51.99869940;8.49421771;2023-04-03T03:01:54;1.30;99.90
1644;DHT22;46825;51.99869940;8.49421771;2023-04-03T03:02:55;1.20;99.90
1644;DHT22;46825;51.99869940;8.49421771;2023-04-03T03:03:56;1.20;99.90
1644;DHT22;46825;51.99869940;8.49421771;2023-04-03T03:04:56;1.10;99.90
1644;DHT22;46825;51.99869940;8.49421771;2023-04-03T03:06:04;1.10;99.90
1644;DHT22;46825;51.99869940;8.49421771;2023-04-03T03:07:05;1.20;99.90
1644;DHT22;46825;51.99869940;8.49421771;2023-04-03T03:08:06;1.10;99.90
1644;DHT22;46825;51.99869940;8.49421771;2023-04-03T03:09:06;1.10;99.90
1644;DHT22;46825;51.99869940;8.49421771;2023-04-03T03:10:07;1.10;99.90
1644;DHT22;46825;51.99869940;8.49421771;2023-04-03T03:11:09;1.00;99.90
1644;DHT22;46825;51.99869940;8.49421771;2023-04-03T03:12:09;1.00;99.90
1644;DHT22;46825;51.99869940;8.49421771;2023-04-03T03:13:10;2.30;99.90
1644;DHT22;46825;51.99869940;8.49421771;2023-04-03T03:14:11;1.00;99.90
1644;DHT22;46825;51.99869940;8.49421771;2023-04-03T03:15:11;1.00;99.90
1644;DHT22;46825;51.99869940;8.49421771;2023-04-03T03:16:12;1.10;99.90
1644;DHT22;46825;51.99869940;8.49421771;2023-04-03T03:17:13;1.10;99.90
1644;DHT22;46825;51.99869940;8.49421771;2023-04-03T03:18:13;1.10;99.90
1644;DHT22;46825;51.99869940;8.49421771;2023-04-03T03:19:14;1.10;99.90
1644;DHT22;46825;51.99869940;8.49421771;2023-04-03T03:20:15;1.10;99.90
1644;DHT22;46825;51.99869940;8.49421771;2023-04-03T03:21:15;1.10;99.90
1644;DHT22;46825;51.99869940;8.49421771;2023-04-03T03:22:16;1.10;99.90
1644;DHT22;46825;51.99869940;8.49421771;2023-04-03T03:23:17;1.10;99.90
1644;DHT22;46825;51.99869940;8.49421771;2023-04-03T03:24:17;1.10;99.90
1644;DHT22;46825;51.99869940;8.49421771;2023-04-03T03:25:18;1.10;99.90
1644;DHT22;46825;51.99869940;8.49421771;2023-04-03T03:26:19;1.10;99.90
1644;DHT22;46825;51.99869940;8.49421771;2023-04-03T03:27:20;1.00;99.90
1644;DHT22;46825;51.99869940;8.49421771;2023-04-03T03:28:20;1.00;99.90
1644;DHT22;46825;51.99869940;8.49421771;2023-04-03T03:29:21;1.00;99.90
1644;DHT22;46825;51.99869940;8.49421771;2023-04-03T03:30:21;1.00;99.90
1644;DHT22;46825;51.99869940;8.49421771;2023-04-03T03:31:22;1.00;99.90
1644;DHT22;46825;51.99869940;8.49421771;2023-04-03T03:32:22;0.90;99.90
1644;DHT22;46825;51.99869940;8.49421771;2023-04-03T03:33:23;1.00;99.90
1644;DHT22;46825;51.99869940;8.49421771;2023-04-03T03:34:24;0.90;99.90
1644;DHT22;46825;51.99869940;8.49421771;2023-04-03T03:35:24;1.00;99.90
1644;DHT22;46825;51.99869940;8.49421771;2023-04-03T03:36:25;0.90;99.90
1644;DHT22;46825;51.99869940;8.49421771;2023-04-03T03:37:26;0.90;99.90
1644;DHT22;46825;51.99869940;8.49421771;2023-04-03T03:38:27;0.80;99.90
1644;DHT22;46825;51.99869940;8.49421771;2023-04-03T03:39:28;0.80;99.90
1644;DHT22;46825;51.99869940;8.49421771;2023-04-03T03:40:28;0.80;99.90
1644;DHT22;46825;51.99869940;8.49421771;2023-04-03T03:41:29;0.80;99.90
1644;DHT22;46825;51.99869940;8.49421771;2023-04-03T03:42:30;0.80;99.90
1644;DHT22;46825;51.99869940;8.49421771;2023-04-03T03:43:30;0.80;99.90
1644;DHT22;46825;51.99869940;8.49421771;2023-04-03T03:44:31;0.90;99.90
1644;DHT22;46825;51.99869940;8.49421771;2023-04-03T03:45:32;0.80;99.90
1644;DHT22;46825;51.99869940;8.49421771;2023-04-03T03:46:32;0.70;99.90
1644;DHT22;46825;51.99869940;8.49421771;2023-04-03T03:47:33;0.70;99.90
1644;DHT22;46825;51.99869940;8.49421771;2023-04-03T03:48:33;0.80;99.90
1644;DHT22;46825;51.99869940;8.49421771;2023-04-03T03:49:34;0.80;99.90
1644;DHT22;46825;51.99869940;8.49421771;2023-04-03T03:50:35;0.70;99.90
1644;DHT22;46825;51.99869940;8.49421771;2023-04-03T03:51:36;0.70;99.90
1644;DHT22;46825;51.99869940;8.49421771;2023-04-03T03:52:36;0.70;99.90
1644;DHT22;46825;51.99869940;8.49421771;2023-04-03T03:53:37;0.70;99.90
1644;DHT22;46825;51.99869940;8.49421771;2023-04-03T03:54:38;0.70;99.90
1644;DHT22;46825;51.99869940;8.49421771;2023-04-03T03:55:39;0.70;99.90
1644;DHT22;46825;51.99869940;8.49421771;2023-04-03T03:56:39;0.70;99.90
1644;DHT22;46825;51.99869940;8.49421771;2023-04-03T03:57:40;0.70;99.90
1644;DHT22;46825;51.99869940;8.49421771;2023-04-03T03:58:41;0.70;99.90
1644;DHT22;46825;51.99869940;8.49421771;2023-04-03T03:59:41;0.70;99.90
1644;DHT22;46825;51.99869940;8.49421771;2023-04-03T04:00:42;0.70;99.90
1644;DHT22;46825;51.99869940;8.49421771;2023-04-03T04:01:43;0.70;99.90
1644;DHT22;46825;51.99869940;8.49421771;2023-04-03T04:02:44;2.60;99.90
1644;DHT22;46825;51.99869940;8.49421771;2023-04-03T04:03:44;0.70;99.90
1644;DHT22;46825;51.99869940;8.49421771;2023-04-03T04:04:45;0.70;99.90
1644;DHT22;46825;51.99869940;8.49421771;2023-04-03T04:05:46;0.70;99.90
1644;DHT22;46825;51.99869940;8.49421771;2023-04-03T04:06:46;0.70;99.90
1644;DHT22;46825;51.99869940;8.49421771;2023-04-03T04:07:47;0.70;99.90
1644;DHT22;46825;51.99869940;8.49421771;2023-04-03T04:08:48;0.80;99.90
1644;DHT22;46825;51.99869940;8.49421771;2023-04-03T04:09:48;0.80;99.90
1644;DHT22;46825;51.99869940;8.49421771;2023-04-03T04:10:49;0.70;99.90
1644;DHT22;46825;51.99869940;8.49421771;2023-04-03T04:11:49;0.70;99.90
1644;DHT22;46825;51.99869940;8.49421771;2023-04-03T04:12:50;0.70;99.90
1644;DHT22;46825;51.99869940;8.49421771;2023-04-03T04:13:51;0.70;99.90
1644;DHT22;46825;51.99869940;8.49421771;2023-04-03T04:14:52;0.70;99.90
1644;DHT22;46825;51.99869940;8.49421771;2023-04-03T04:15:52;0.60;99.90
1644;DHT22;46825;51.99869940;8.49421771;2023-04-03T04:16:53;0.70;99.90
1644;DHT22;46825;51.99869940;8.49421771;2023-04-03T04:17:54;0.70;99.90
1644;DHT22;46825;51.99869940;8.49421771;2023-04-03T04:18:55;0.70;99.90
1644;DHT22;46825;51.99869940;8.49421771;2023-04-03T04:19:55;0.70;99.90
1644;DHT22;46825;51.99869940;8.49421771;2023-04-03T04:20:56;0.60;99.90
1644;DHT22;46825;51.99869940;8.49421771;2023-04-03T04:21:57;0.70;99.90
1644;DHT22;46825;51.99869940;8.49421771;2023-04-03T04:22:57;0.70;99.90
1644;DHT22;46825;51.99869940;8.49421771;2023-04-03T04:23:58;0.60;99.90
1644;DHT22;46825;51.99869940;8.49421771;2023-04-03T04:24:59;0.60;99.90
1644;DHT22;46825;51.99869940;8.49421771;2023-04-03T04:25:59;0.60;99.90
1644;DHT22;46825;51.99869940;8.49421771;2023-04-03T04:27:00;0.50;99.90
1644;DHT22;46825;51.99869940;8.49421771;2023-04-03T04:28:00;0.60;99.90
1644;DHT22;46825;51.99869940;8.49421771;2023-04-03T04:29:01;0.60;99.90
1644;DHT22;46825;51.99869940;8.49421771;2023-04-03T04:30:01;0.60;99.90
1644;DHT22;46825;51.99869940;8.49421771;2023-04-03T04:31:03;0.60;99.90
1644;DHT22;46825;51.99869940;8.49421771;2023-04-03T04:32:04;0.60;99.90
1644;DHT22;46825;51.99869940;8.49421771;2023-04-03T04:33:04;0.60;99.90
1644;DHT22;46825;51.99869940;8.49421771;2023-04-03T04:34:05;0.60;99.90
1644;DHT22;46825;51.99869940;8.49421771;2023-04-03T04:35:06;0.50;99.90
1644;DHT22;46825;51.99869940;8.49421771;2023-04-03T04:36:07;0.50;99.90
1644;DHT22;46825;51.99869940;8.49421771;2023-04-03T04:37:07;0.50;99.90
1644;DHT22;46825;51.99869940;8.49421771;2023-04-03T04:38:08;0.50;99.90
1644;DHT22;46825;51.99869940;8.49421771;2023-04-03T04:39:09;0.50;99.90
1644;DHT22;46825;51.99869940;8.49421771;2023-04-03T04:40:10;0.50;99.90
1644;DHT22;46825;51.99869940;8.49421771;2023-04-03T04:41:10;0.50;99.90
1644;DHT22;46825;51.99869940;8.49421771;2023-04-03T04:42:11;0.50;99.90
1644;DHT22;46825;51.99869940;8.49421771;2023-04-03T04:43:13;0.50;99.90
1644;DHT22;46825;51.99869940;8.49421771;2023-04-03T04:44:14;0.60;99.90
1644;DHT22;46825;51.99869940;8.49421771;2023-04-03T04:45:15;0.50;99.90
1644;DHT22;46825;51.99869940;8.49421771;2023-04-03T04:46:16;0.50;99.90
1644;DHT22;46825;51.99869940;8.49421771;2023-04-03T04:47:17;0.50;99.90
1644;DHT22;46825;51.99869940;8.49421771;2023-04-03T04:48:18;0.50;99.90
1644;DHT22;46825;51.99869940;8.49421771;2023-04-03T04:49:18;0.40;99.90
1644;DHT22;46825;51.99869940;8.49421771;2023-04-03T04:50:19;0.40;99.90
1644;DHT22;46825;51.99869940;8.49421771;2023-04-03T04:51:20;0.40;99.90
1644;DHT22;46825;51.99869940;8.49421771;2023-04-03T04:52:20;0.40;99.90
1644;DHT22;46825;51.99869940;8.49421771;2023-04-03T04:53:21;0.40;99.90
1644;DHT22;46825;51.99869940;8.49421771;2023-04-03T04:54:22;0.40;99.90
1644;DHT22;46825;51.99869940;8.49421771;2023-04-03T04:55:22;0.40;99.90
1644;DHT22;46825;51.99869940;8.49421771;2023-04-03T04:56:23;0.40;99.90
1644;DHT22;46825;51.99869940;8.49421771;2023-04-03T04:57:23;0.40;99.90
1644;DHT22;46825;51.99869940;8.49421771;2023-04-03T04:58:24;0.40;99.90
1644;DHT22;46825;51.99869940;8.49421771;2023-04-03T04:59:25;0.40;99.90
1644;DHT22;46825;51.99869940;8.49421771;2023-04-03T05:00:26;0.40;99.90
1644;DHT22;46825;51.99869940;8.49421771;2023-04-03T05:01:27;0.40;99.90
1644;DHT22;46825;51.99869940;8.49421771;2023-04-03T05:02:27;0.40;99.90
1644;DHT22;46825;51.99869940;8.49421771;2023-04-03T05:03:28;0.40;99.90
1644;DHT22;46825;51.99869940;8.49421771;2023-04-03T05:04:29;0.40;99.90
1644;DHT22;46825;51.99869940;8.49421771;2023-04-03T05:05:29;0.40;99.90
1644;DHT22;46825;51.99869940;8.49421771;2023-04-03T05:06:30;0.40;99.90
1644;DHT22;46825;51.99869940;8.49421771;2023-04-03T05:07:32;0.40;99.90
1644;DHT22;46825;51.99869940;8.49421771;2023-04-03T05:08:32;0.40;99.90
1644;DHT22;46825;51.99869940;8.49421771;2023-04-03T05:09:33;0.40;99.90
1644;DHT22;46825;51.99869940;8.49421771;2023-04-03T05:10:34;0.40;99.90
1644;DHT22;46825;51.99869940;8.49421771;2023-04-03T05:11:35;0.50;99.90
1644;DHT22;46825;51.99869940;8.49421771;2023-04-03T05:12:35;0.40;99.90
1644;DHT22;46825;51.99869940;8.49421771;2023-04-03T05:13:36;0.90;99.90
1644;DHT22;46825;51.99869940;8.49421771;2023-04-03T05:14:37;0.30;99.90
1644;DHT22;46825;51.99869940;8.49421771;2023-04-03T05:15:37;0.30;99.90
1644;DHT22;46825;51.99869940;8.49421771;2023-04-03T05:16:38;0.40;99.90
1644;DHT22;46825;51.99869940;8.49421771;2023-04-03T05:17:38;0.40;99.90
1644;DHT22;46825;51.99869940;8.49421771;2023-04-03T05:18:39;0.30;99.90
1644;DHT22;46825;51.99869940;8.49421771;2023-04-03T05:19:40;0.40;99.90
1644;DHT22;46825;51.99869940;8.49421771;2023-04-03T05:20:40;0.30;99.90
1644;DHT22;46825;51.99869940;8.49421771;2023-04-03T05:21:41;0.30;99.90
1644;DHT22;46825;51.99869940;8.49421771;2023-04-03T05:22:41;0.30;99.90
1644;DHT22;46825;51.99869940;8.49421771;2023-04-03T05:23:42;0.30;99.90
1644;DHT22;46825;51.99869940;8.49421771;2023-04-03T05:24:43;0.40;99.90
1644;DHT22;46825;51.99869940;8.49421771;2023-04-03T05:25:43;0.40;99.90
1644;DHT22;46825;51.99869940;8.49421771;2023-04-03T05:26:45;0.40;99.90
1644;DHT22;46825;51.99869940;8.49421771;2023-04-03T05:27:46;0.40;99.90
1644;DHT22;46825;51.99869940;8.49421771;2023-04-03T05:28:46;0.40;99.90
1644;DHT22;46825;51.99869940;8.49421771;2023-04-03T05:29:47;0.30;99.90
1644;DHT22;46825;51.99869940;8.49421771;2023-04-03T05:30:54;0.30;99.90
1644;DHT22;46825;51.99869940;8.49421771;2023-04-03T05:31:55;0.30;99.90
1644;DHT22;46825;51.99869940;8.49421771;2023-04-03T05:32:56;0.30;99.90
1644;DHT22;46825;51.99869940;8.49421771;2023-04-03T05:33:57;0.30;99.90
1644;DHT22;46825;51.99869940;8.49421771;2023-04-03T05:34:58;0.40;99.90
1644;DHT22;46825;51.99869940;8.49421771;2023-04-03T05:36:05;0.30;99.90
1644;DHT22;46825;51.99869940;8.49421771;2023-04-03T05:37:06;0.40;99.90
1644;DHT22;46825;51.99869940;8.49421771;2023-04-03T05:38:07;0.40;99.90
1644;DHT22;46825;51.99869940;8.49421771;2023-04-03T05:39:08;0.40;99.90
1644;DHT22;46825;51.99869940;8.49421771;2023-04-03T05:40:09;0.40;99.90
1644;DHT22;46825;51.99869940;8.49421771;2023-04-03T05:41:10;0.40;99.90
1644;DHT22;46825;51.99869940;8.49421771;2023-04-03T05:42:10;0.30;99.90
1644;DHT22;46825;51.99869940;8.49421771;2023-04-03T05:43:12;0.40;99.90
1644;DHT22;46825;51.99869940;8.49421771;2023-04-03T05:44:12;0.40;99.90
1644;DHT22;46825;51.99869940;8.49421771;2023-04-03T05:45:13;0.40;99.90
1644;DHT22;46825;51.99869940;8.49421771;2023-04-03T05:46:18;0.40;99.90
1644;DHT22;46825;51.99869940;8.49421771;2023-04-03T05:47:19;0.40;99.90
1644;DHT22;46825;51.99869940;8.49421771;2023-04-03T05:48:20;0.40;99.90
1644;DHT22;46825;51.99869940;8.49421771;2023-04-03T05:49:20;0.40;99.90